Time;durP1;ratioP1;P1;durP2;ratioP2;P2;SDS_P1;SDS_P2;PMS_P1;PMS_P2;Temp;Humidity;BMP_temperature;BMP_pressure;BME280_temperature;BME280_humidity;BME280_pressure;Samples;Min_cycle;Max_cycle;Signal;HPM_P1;HPM_P2
2023/06/20 00:00:52;;;;;;;12.30;7.85;;;19.60;92.50;;;;;;5011611;28;20098;-66
2023/06/20 00:03:18;;;;;;;11.00;7.30;;;19.60;92.60;;;;;;5023928;28;20495;-66
2023/06/20 00:05:44;;;;;;;11.32;8.02;;;19.60;92.60;;;;;;5036894;28;20488;-62
2023/06/20 00:08:10;;;;;;;13.52;8.23;;;19.60;92.70;;;;;;5027184;28;20552;-62
2023/06/20 00:10:35;;;;;;;12.25;8.02;;;19.60;92.80;;;;;;5010703;28;20270;-63
2023/06/20 00:13:01;;;;;;;10.50;7.28;;;19.60;92.90;;;;;;5006503;28;20487;-62
2023/06/20 00:15:28;;;;;;;11.77;7.85;;;19.60;92.90;;;;;;5027399;28;20057;-63
2023/06/20 00:17:55;;;;;;;12.02;7.68;;;19.60;93.00;;;;;;5025011;28;20056;-63
2023/06/20 00:20:21;;;;;;;13.05;8.45;;;19.60;93.10;;;;;;5023176;28;20509;-63
2023/06/20 00:22:50;;;;;;;11.52;7.85;;;19.70;93.20;;;;;;5029639;28;20045;-65
2023/06/20 00:25:16;;;;;;;11.52;7.75;;;19.60;93.20;;;;;;5024047;28;20041;-63
2023/06/20 00:27:42;;;;;;;14.30;8.55;;;19.60;93.30;;;;;;5012266;28;20215;-66
2023/06/20 00:30:08;;;;;;;11.25;7.75;;;19.60;93.30;;;;;;5012068;28;20025;-63
2023/06/20 00:32:34;;;;;;;10.93;7.60;;;19.60;93.40;;;;;;4995888;28;20046;-63
2023/06/20 00:34:59;;;;;;;10.32;7.88;;;19.60;93.40;;;;;;5029145;28;20502;-63
2023/06/20 00:37:26;;;;;;;10.40;7.13;;;19.60;93.50;;;;;;5028659;28;20231;-63
2023/06/20 00:39:51;;;;;;;11.48;7.78;;;19.60;93.50;;;;;;5013500;28;20102;-63
2023/06/20 00:42:24;;;;;;;13.93;7.65;;;19.60;93.60;;;;;;5013482;28;20037;-63
2023/06/20 00:44:51;;;;;;;11.18;8.20;;;19.50;93.60;;;;;;5025721;28;20064;-63
2023/06/20 00:47:17;;;;;;;10.23;7.70;;;19.60;93.60;;;;;;5006772;28;20045;-63
2023/06/20 00:49:48;;;;;;;13.45;7.95;;;19.50;93.60;;;;;;5027627;28;20041;-64
2023/06/20 00:52:19;;;;;;;11.88;7.20;;;19.50;93.60;;;;;;5012996;28;20056;-62
2023/06/20 00:54:47;;;;;;;10.48;7.38;;;19.50;93.60;;;;;;5033804;28;20037;-63
2023/06/20 00:57:14;;;;;;;11.65;6.97;;;19.50;93.70;;;;;;5023152;28;20415;-63
2023/06/20 00:59:48;;;;;;;10.45;7.18;;;19.50;93.70;;;;;;5031699;28;20080;-63
2023/06/20 01:02:14;;;;;;;12.57;7.18;;;19.50;93.80;;;;;;5007491;28;20042;-65
2023/06/20 01:04:42;;;;;;;11.88;7.40;;;19.50;93.80;;;;;;5033376;28;20040;-64
2023/06/20 01:07:33;;;;;;;13.80;7.60;;;19.50;93.80;;;;;;5015899;28;20503;-63
2023/06/20 01:10:17;;;;;;;11.40;7.37;;;19.50;93.90;;;;;;5014674;28;20042;-63
2023/06/20 01:12:56;;;;;;;12.07;7.43;;;19.50;94.00;;;;;;5013806;28;20133;-63
2023/06/20 01:15:51;;;;;;;14.00;8.43;;;19.50;94.00;;;;;;5028838;28;20048;-64
2023/06/20 01:18:20;;;;;;;10.80;7.88;;;19.50;94.10;;;;;;5015678;28;20050;-63
2023/06/20 01:20:50;;;;;;;10.93;7.47;;;19.60;94.10;;;;;;5014892;28;20050;-62
2023/06/20 01:23:30;;;;;;;10.27;7.90;;;19.60;94.20;;;;;;5007424;28;20167;-63
2023/06/20 01:26:08;;;;;;;12.40;8.55;;;19.50;94.30;;;;;;5016182;28;20447;-63
2023/06/20 01:28:55;;;;;;;11.77;8.57;;;19.50;94.30;;;;;;5013973;28;20125;-63
2023/06/20 01:31:30;;;;;;;10.65;7.95;;;19.50;94.40;;;;;;5012935;28;20480;-63
2023/06/20 01:33:59;;;;;;;12.13;8.25;;;19.60;94.50;;;;;;5033232;28;20151;-66
2023/06/20 01:36:32;;;;;;;14.48;8.55;;;19.60;94.40;;;;;;5035560;28;20156;-63
2023/06/20 01:39:02;;;;;;;12.63;8.23;;;19.50;94.50;;;;;;5028485;28;20038;-63
2023/06/20 01:41:31;;;;;;;11.85;8.18;;;19.50;94.50;;;;;;5029130;28;20404;-63
2023/06/20 01:43:59;;;;;;;14.70;9.07;;;19.60;94.60;;;;;;5014318;28;20076;-67
2023/06/20 01:46:26;;;;;;;12.13;8.40;;;19.50;94.60;;;;;;5014373;28;20391;-63
2023/06/20 01:48:53;;;;;;;11.43;8.63;;;19.60;94.70;;;;;;5016591;28;20041;-63
2023/06/20 01:51:20;;;;;;;13.23;8.90;;;19.50;94.80;;;;;;5037555;28;20033;-67
2023/06/20 01:53:47;;;;;;;13.23;9.25;;;19.50;94.90;;;;;;4998018;28;20059;-63
2023/06/20 01:56:14;;;;;;;12.40;8.85;;;19.50;94.90;;;;;;5029395;28;20033;-66
2023/06/20 01:58:41;;;;;;;11.77;8.85;;;19.50;95.00;;;;;;5027854;28;20037;-62
2023/06/20 02:01:07;;;;;;;13.63;9.77;;;19.50;95.10;;;;;;5032962;28;20038;-62
2023/06/20 02:03:34;;;;;;;13.60;10.45;;;19.50;95.10;;;;;;5031697;28;20042;-67
2023/06/20 02:06:01;;;;;;;12.52;9.43;;;19.50;95.20;;;;;;5009879;28;20399;-62
2023/06/20 02:08:29;;;;;;;12.50;9.07;;;19.40;95.20;;;;;;5031830;28;20053;-63
2023/06/20 02:10:56;;;;;;;15.35;10.05;;;19.40;95.30;;;;;;5031462;28;20037;-66
2023/06/20 02:13:23;;;;;;;15.95;9.93;;;19.40;95.40;;;;;;5016364;28;20067;-64
2023/06/20 02:15:52;;;;;;;13.48;9.68;;;19.40;95.40;;;;;;5016241;28;20049;-63
2023/06/20 02:18:18;;;;;;;15.90;10.73;;;19.40;95.50;;;;;;5037119;28;20034;-65
2023/06/20 02:20:49;;;;;;;15.45;10.00;;;19.40;95.50;;;;;;5029428;28;20041;-66
2023/06/20 02:23:18;;;;;;;15.75;10.43;;;19.40;95.60;;;;;;5018106;28;20041;-63
2023/06/20 02:25:46;;;;;;;12.85;10.60;;;19.30;95.60;;;;;;5032402;28;20045;-68
2023/06/20 02:28:13;;;;;;;15.52;11.48;;;19.30;95.70;;;;;;5031339;28;20210;-63
2023/06/20 02:30:39;;;;;;;14.93;10.75;;;19.40;95.80;;;;;;5013377;28;20041;-63
2023/06/20 02:33:07;;;;;;;14.02;10.57;;;19.40;95.80;;;;;;5031456;28;20052;-62
2023/06/20 02:35:36;;;;;;;14.63;11.25;;;19.40;95.90;;;;;;5012758;28;20053;-63
2023/06/20 02:38:03;;;;;;;15.65;10.90;;;19.40;95.90;;;;;;5029059;28;20129;-62
2023/06/20 02:40:29;;;;;;;14.60;10.85;;;19.40;96.00;;;;;;5030123;28;20069;-63
2023/06/20 02:42:54;;;;;;;17.00;11.63;;;19.40;96.00;;;;;;5032252;28;20069;-63
2023/06/20 02:45:20;;;;;;;17.20;11.45;;;19.40;96.10;;;;;;5012727;28;20056;-67
2023/06/20 02:48:28;;;;;;;17.77;11.70;;;19.40;96.10;;;;;;4997303;28;20131;-63
2023/06/20 02:51:00;;;;;;;16.95;12.00;;;19.30;96.30;;;;;;4977707;28;20045;-63
2023/06/20 02:53:48;;;;;;;17.75;11.90;;;19.30;96.30;;;;;;5012073;28;20075;-63
2023/06/20 02:56:15;;;;;;;16.70;12.25;;;19.30;96.30;;;;;;5033838;28;20040;-62
2023/06/20 02:58:47;;;;;;;16.10;11.82;;;19.30;96.40;;;;;;5030829;28;20045;-64
2023/06/20 03:01:18;;;;;;;17.17;12.18;;;19.30;96.50;;;;;;5023373;28;20041;-63
2023/06/20 03:03:45;;;;;;;16.98;12.65;;;19.30;96.50;;;;;;5029362;28;20046;-63
2023/06/20 03:06:14;;;;;;;16.48;12.43;;;19.40;96.50;;;;;;4993655;28;20044;-66
2023/06/20 03:08:43;;;;;;;16.75;12.32;;;19.40;96.50;;;;;;5028192;28;20030;-63
2023/06/20 03:11:09;;;;;;;15.35;12.65;;;19.40;96.60;;;;;;5028448;28;20037;-68
2023/06/20 03:13:35;;;;;;;19.00;13.20;;;19.40;96.60;;;;;;5028810;28;20049;-62
2023/06/20 03:16:00;;;;;;;16.67;13.70;;;19.40;96.70;;;;;;5030365;28;20654;-64
2023/06/20 03:18:29;;;;;;;18.77;13.50;;;19.40;96.70;;;;;;5031026;28;20111;-63
2023/06/20 03:20:54;;;;;;;19.33;13.57;;;19.40;96.70;;;;;;5009621;28;20107;-63
2023/06/20 03:23:20;;;;;;;16.98;13.73;;;19.40;96.80;;;;;;5023725;28;20041;-63
2023/06/20 03:25:46;;;;;;;16.48;13.10;;;19.30;96.80;;;;;;5006631;28;20049;-63
2023/06/20 03:28:11;;;;;;;16.38;13.60;;;19.30;96.90;;;;;;5011572;28;20041;-64
2023/06/20 03:30:37;;;;;;;18.40;13.57;;;19.40;96.90;;;;;;5030344;28;20041;-63
2023/06/20 03:33:03;;;;;;;19.52;13.55;;;19.40;96.90;;;;;;5029745;28;20218;-64
2023/06/20 03:35:28;;;;;;;18.27;13.25;;;19.40;97.00;;;;;;5012215;28;20487;-63
2023/06/20 03:37:54;;;;;;;18.38;13.00;;;19.40;97.00;;;;;;5031561;28;20056;-63
2023/06/20 03:40:20;;;;;;;17.90;13.15;;;19.40;97.00;;;;;;4997443;28;20184;-65
2023/06/20 03:42:45;;;;;;;17.50;14.18;;;19.40;97.10;;;;;;5025727;28;20044;-66
2023/06/20 03:45:11;;;;;;;17.27;13.30;;;19.40;97.10;;;;;;5029750;28;20121;-63
2023/06/20 03:47:37;;;;;;;16.67;13.85;;;19.40;97.20;;;;;;5030205;28;20128;-63
2023/06/20 03:50:03;;;;;;;19.20;13.32;;;19.40;97.20;;;;;;5004217;28;20034;-63
2023/06/20 03:52:28;;;;;;;20.55;13.48;;;19.40;97.30;;;;;;5025360;28;20052;-63
2023/06/20 03:54:54;;;;;;;19.48;13.88;;;19.40;97.30;;;;;;5011433;28;20038;-67
2023/06/20 03:57:19;;;;;;;17.17;13.38;;;19.40;97.30;;;;;;5030071;28;20068;-63
2023/06/20 03:59:45;;;;;;;19.02;13.48;;;19.30;97.30;;;;;;5032616;28;20052;-63
2023/06/20 04:02:10;;;;;;;19.52;13.70;;;19.40;97.30;;;;;;5030214;28;20033;-63
2023/06/20 04:04:37;;;;;;;18.17;14.13;;;19.40;97.40;;;;;;5024894;28;20072;-67
2023/06/20 04:07:02;;;;;;;17.17;13.90;;;19.40;97.40;;;;;;5029567;28;20048;-64
2023/06/20 04:09:28;;;;;;;16.42;12.98;;;19.40;97.40;;;;;;5026259;28;20402;-63
2023/06/20 04:11:54;;;;;;;20.80;14.20;;;19.40;97.50;;;;;;5023422;28;20511;-63
2023/06/20 04:14:20;;;;;;;17.58;12.93;;;19.40;97.50;;;;;;5023983;28;20038;-63
2023/06/20 04:16:47;;;;;;;18.13;13.45;;;19.40;97.50;;;;;;5029676;28;20047;-63
2023/06/20 04:19:14;;;;;;;17.42;12.98;;;19.40;97.50;;;;;;5030796;28;20068;-63
2023/06/20 04:21:40;;;;;;;18.33;13.30;;;19.40;97.50;;;;;;5040629;22;20076;-64
2023/06/20 04:24:05;;;;;;;16.50;12.73;;;19.40;97.50;;;;;;5021371;28;20048;-64
2023/06/20 04:26:58;;;;;;;18.38;13.88;;;19.40;97.50;;;;;;5015848;28;20034;-64
2023/06/20 04:29:23;;;;;;;;;;;19.50;97.60;;;;;;5007024;28;20096;-64
2023/06/20 04:31:52;;;;;;;16.63;12.25;;;19.50;97.50;;;;;;4997131;28;19917;-64
2023/06/20 04:34:22;;;;;;;16.80;12.93;;;19.50;97.40;;;;;;4997363;28;20099;-64
2023/06/20 04:36:49;;;;;;;18.30;13.05;;;19.60;97.50;;;;;;5013320;28;20069;-64
2023/06/20 04:39:14;;;;;;;17.00;12.63;;;19.60;97.50;;;;;;4989110;28;20476;-64
2023/06/20 04:41:40;;;;;;;17.23;12.93;;;19.60;97.50;;;;;;4996188;28;20050;-64
2023/06/20 04:44:05;;;;;;;16.17;13.00;;;19.60;97.50;;;;;;5018631;28;20034;-64
2023/06/20 04:46:31;;;;;;;20.38;13.38;;;19.70;97.50;;;;;;4986736;28;20038;-62
2023/06/20 04:48:57;;;;;;;13.63;11.90;;;19.70;97.70;;;;;;5012307;28;20045;-62
2023/06/20 04:51:22;;;;;;;16.70;13.40;;;19.70;97.40;;;;;;5003709;28;20046;-64
2023/06/20 04:53:49;;;;;;;19.45;12.52;;;19.70;97.40;;;;;;5009818;28;20052;-64
2023/06/20 04:56:15;;;;;;;17.77;12.77;;;19.70;97.40;;;;;;4995530;28;20096;-64
2023/06/20 04:58:45;;;;;;;18.15;13.15;;;19.80;97.40;;;;;;5012708;28;20492;-64
2023/06/20 05:01:10;;;;;;;14.40;11.95;;;19.80;97.40;;;;;;4992995;28;20048;-64
2023/06/20 05:03:36;;;;;;;16.08;12.57;;;19.80;97.40;;;;;;5001226;28;20042;-64
2023/06/20 05:06:02;;;;;;;18.10;13.45;;;19.90;97.40;;;;;;5012417;28;20049;-64
2023/06/20 05:08:27;;;;;;;15.77;13.05;;;19.90;97.40;;;;;;5019622;28;20109;-63
2023/06/20 05:10:53;;;;;;;18.73;13.13;;;19.90;97.40;;;;;;4985286;28;20033;-64
2023/06/20 05:13:18;;;;;;;19.38;13.00;;;19.90;97.40;;;;;;5016799;28;20065;-63
2023/06/20 05:15:44;;;;;;;19.05;12.23;;;19.90;97.30;;;;;;5012003;28;20038;-65
2023/06/20 05:18:09;;;;;;;14.48;12.65;;;20.00;97.30;;;;;;4982439;28;20061;-63
2023/06/20 05:20:35;;;;;;;16.85;13.07;;;20.00;97.30;;;;;;5014993;28;20415;-63
2023/06/20 05:23:01;;;;;;;17.77;12.85;;;20.00;97.30;;;;;;5021537;28;20030;-64
2023/06/20 05:25:26;;;;;;;17.88;12.75;;;20.10;97.30;;;;;;4991703;28;20502;-64
2023/06/20 05:27:52;;;;;;;15.02;12.23;;;20.10;97.20;;;;;;5012502;28;20108;-63
2023/06/20 05:30:18;;;;;;;18.98;12.73;;;20.20;97.20;;;;;;5017086;28;20049;-64
2023/06/20 05:32:43;;;;;;;16.58;12.48;;;20.20;97.20;;;;;;4999781;28;20048;-65
2023/06/20 05:35:09;;;;;;;18.50;13.00;;;20.20;97.20;;;;;;5010786;28;20073;-65
2023/06/20 05:37:35;;;;;;;17.25;13.70;;;20.20;97.20;;;;;;5008873;28;20034;-64
2023/06/20 05:40:00;;;;;;;18.90;13.23;;;20.30;97.20;;;;;;5013656;28;20076;-66
2023/06/20 05:42:29;;;;;;;15.27;12.82;;;20.20;97.20;;;;;;5003295;28;20062;-66
2023/06/20 05:44:55;;;;;;;19.15;14.63;;;20.20;97.20;;;;;;5013658;28;20053;-65
2023/06/20 05:47:20;;;;;;;19.27;13.45;;;20.20;97.20;;;;;;5019517;28;20234;-65
2023/06/20 05:49:47;;;;;;;17.92;13.52;;;20.20;97.20;;;;;;4990758;28;20038;-64
2023/06/20 05:52:13;;;;;;;17.63;13.35;;;20.20;97.30;;;;;;5004030;28;20041;-64
2023/06/20 05:54:41;;;;;;;20.00;13.45;;;20.20;97.20;;;;;;5007031;28;20042;-63
2023/06/20 05:57:16;;;;;;;17.67;13.50;;;20.30;97.30;;;;;;4992914;28;20238;-66
2023/06/20 05:59:41;;;;;;;15.73;12.85;;;20.20;97.40;;;;;;4995559;28;20129;-66
2023/06/20 06:02:07;;;;;;;22.17;13.70;;;20.30;97.20;;;;;;5015312;28;20458;-66
2023/06/20 06:04:33;;;;;;;19.85;12.90;;;20.30;97.30;;;;;;5015670;28;20376;-65
2023/06/20 06:06:59;;;;;;;16.63;12.82;;;20.30;97.30;;;;;;4997207;28;20034;-66
2023/06/20 06:09:24;;;;;;;16.98;12.90;;;20.40;97.30;;;;;;5017896;28;20395;-66
2023/06/20 06:11:50;;;;;;;17.77;13.18;;;20.40;97.30;;;;;;5014183;28;20046;-65
2023/06/20 06:14:16;;;;;;;17.55;13.00;;;20.40;97.30;;;;;;5014218;28;20026;-65
2023/06/20 06:16:41;;;;;;;17.10;13.52;;;20.40;97.40;;;;;;5005033;28;20041;-66
2023/06/20 06:19:07;;;;;;;15.18;13.25;;;20.50;97.50;;;;;;5010836;28;20052;-66
2023/06/20 06:21:33;;;;;;;20.08;13.00;;;20.50;97.50;;;;;;5016493;28;20462;-66
2023/06/20 06:23:58;;;;;;;18.90;13.82;;;20.60;97.50;;;;;;5006803;28;20038;-66
2023/06/20 06:26:24;;;;;;;14.50;12.43;;;20.70;97.50;;;;;;5013635;28;20124;-63
2023/06/20 06:28:49;;;;;;;14.98;12.95;;;20.80;97.50;;;;;;5016670;28;20061;-65
2023/06/20 06:31:24;;;;;;;16.88;13.25;;;20.90;97.60;;;;;;5020809;28;20499;-65
2023/06/20 06:33:50;;;;;;;15.18;12.68;;;21.00;97.60;;;;;;5002516;28;20058;-65
2023/06/20 06:36:16;;;;;;;14.20;12.10;;;21.00;97.50;;;;;;5005708;28;20448;-65
2023/06/20 06:38:48;;;;;;;16.42;11.98;;;21.10;97.40;;;;;;4994423;28;20080;-65
2023/06/20 06:41:15;;;;;;;14.05;11.38;;;21.20;97.30;;;;;;5013702;28;20038;-65
2023/06/20 06:43:40;;;;;;;14.02;11.43;;;21.30;97.30;;;;;;5003075;28;20466;-65
2023/06/20 06:46:06;;;;;;;17.08;12.45;;;21.40;97.30;;;;;;5026218;28;20496;-66
2023/06/20 06:48:32;;;;;;;15.40;12.25;;;21.40;97.30;;;;;;4996181;28;20034;-66
2023/06/20 06:50:58;;;;;;;13.57;11.30;;;21.50;97.30;;;;;;5009260;28;20427;-66
2023/06/20 06:53:24;;;;;;;15.05;11.07;;;21.50;97.20;;;;;;5019313;28;20115;-66
2023/06/20 06:55:50;;;;;;;13.13;11.52;;;21.60;97.20;;;;;;4991835;28;20049;-66
2023/06/20 06:58:16;;;;;;;13.98;11.77;;;21.60;97.00;;;;;;4998421;28;20056;-66
2023/06/20 07:00:41;;;;;;;15.23;11.80;;;21.60;97.00;;;;;;5016131;28;20038;-66
2023/06/20 07:03:08;;;;;;;15.88;11.32;;;21.60;96.90;;;;;;5005796;28;20044;-65
2023/06/20 07:05:34;;;;;;;13.80;11.55;;;21.60;96.90;;;;;;5012491;28;20049;-65
2023/06/20 07:07:59;;;;;;;13.90;11.35;;;21.70;96.80;;;;;;5020939;28;20065;-66
2023/06/20 07:10:25;;;;;;;14.82;11.50;;;21.60;96.80;;;;;;5025281;28;20064;-64
2023/06/20 07:12:51;;;;;;;16.98;11.45;;;21.60;96.90;;;;;;5009306;28;20049;-66
2023/06/20 07:15:16;;;;;;;12.00;10.77;;;21.70;96.90;;;;;;5019476;28;20041;-66
2023/06/20 07:17:42;;;;;;;14.45;11.98;;;21.70;96.90;;;;;;5014935;28;20543;-65
2023/06/20 07:20:09;;;;;;;13.75;11.50;;;21.70;97.00;;;;;;5021871;28;20487;-63
2023/06/20 07:22:35;;;;;;;11.82;10.57;;;21.80;97.20;;;;;;5013909;28;20034;-66
2023/06/20 07:25:01;;;;;;;13.05;11.52;;;21.80;96.90;;;;;;5018230;28;20428;-66
2023/06/20 07:27:27;;;;;;;13.63;12.23;;;21.80;97.00;;;;;;4994750;28;21161;-66
2023/06/20 07:29:52;;;;;;;13.68;11.43;;;21.90;97.00;;;;;;5012011;28;20392;-66
2023/06/20 07:32:18;;;;;;;16.48;12.02;;;21.90;97.00;;;;;;5019722;28;20432;-65
2023/06/20 07:34:44;;;;;;;13.88;12.32;;;21.90;96.90;;;;;;5013139;28;20125;-65
2023/06/20 07:37:10;;;;;;;16.58;12.00;;;22.00;97.00;;;;;;5005753;28;20399;-64
2023/06/20 07:39:43;;;;;;;13.75;11.23;;;22.00;96.90;;;;;;5017187;28;20043;-66
2023/06/20 07:42:09;;;;;;;15.15;12.18;;;22.00;96.80;;;;;;4996270;28;20392;-65
2023/06/20 07:44:35;;;;;;;13.45;11.30;;;22.00;96.80;;;;;;5013728;28;20042;-66
2023/06/20 07:47:01;;;;;;;15.25;11.65;;;22.00;96.70;;;;;;5011975;28;20033;-66
2023/06/20 07:49:28;;;;;;;13.27;11.52;;;22.00;96.80;;;;;;4998387;28;20542;-65
2023/06/20 07:51:53;;;;;;;16.65;12.45;;;22.00;96.70;;;;;;5019303;28;20119;-65
2023/06/20 07:54:19;;;;;;;15.63;12.55;;;22.00;96.80;;;;;;4996273;28;20488;-65
2023/06/20 07:56:44;;;;;;;16.70;13.30;;;22.00;96.80;;;;;;5001071;28;20065;-65
2023/06/20 07:59:10;;;;;;;15.35;11.68;;;21.90;96.90;;;;;;5023785;28;20052;-65
2023/06/20 08:01:36;;;;;;;15.85;12.75;;;21.90;97.00;;;;;;5001547;28;20117;-65
2023/06/20 08:04:01;;;;;;;14.95;12.40;;;21.90;97.10;;;;;;5000506;28;20050;-65
2023/06/20 08:06:27;;;;;;;14.63;13.10;;;21.90;97.10;;;;;;5022378;28;20041;-65
2023/06/20 08:08:53;;;;;;;15.90;11.77;;;21.90;97.20;;;;;;5027686;28;20058;-65
2023/06/20 08:11:22;;;;;;;14.77;12.68;;;21.90;97.20;;;;;;5013754;28;20036;-65
2023/06/20 08:13:48;;;;;;;14.43;12.93;;;22.00;97.30;;;;;;5006772;28;20056;-65
2023/06/20 08:16:14;;;;;;;14.07;12.57;;;22.00;97.30;;;;;;5021311;28;20120;-65
2023/06/20 08:18:39;;;;;;;15.70;13.05;;;22.10;97.20;;;;;;5013415;28;20377;-66
2023/06/20 08:22:01;;;;;;;13.73;11.55;;;22.10;97.20;;;;;;5011347;28;20037;-64
2023/06/20 08:24:29;;;;;;;15.35;12.23;;;22.20;97.20;;;;;;4990935;28;20065;-66
2023/06/20 08:26:55;;;;;;;15.73;13.73;;;22.30;97.20;;;;;;5011728;28;20061;-64
2023/06/20 08:29:20;;;;;;;16.05;13.05;;;22.40;97.30;;;;;;5001339;28;20076;-64
2023/06/20 08:31:46;;;;;;;15.13;12.60;;;22.40;97.30;;;;;;5016899;28;20045;-64
2023/06/20 08:34:12;;;;;;;15.63;12.35;;;22.50;97.40;;;;;;5015535;28;20509;-63
2023/06/20 08:36:38;;;;;;;19.75;14.27;;;22.60;97.40;;;;;;4998000;28;20045;-64
2023/06/20 08:39:04;;;;;;;14.50;12.80;;;22.60;97.20;;;;;;5025288;28;20033;-65
2023/06/20 08:41:30;;;;;;;15.70;13.02;;;22.70;97.20;;;;;;5001483;28;20052;-64
2023/06/20 08:43:56;;;;;;;16.67;13.15;;;22.80;97.20;;;;;;5013302;28;20045;-65
2023/06/20 08:46:24;;;;;;;16.63;14.45;;;22.80;97.30;;;;;;5017728;28;20034;-64
2023/06/20 08:48:50;;;;;;;14.93;12.65;;;22.90;97.40;;;;;;4997001;28;20460;-63
2023/06/20 08:51:16;;;;;;;15.43;13.52;;;23.10;97.40;;;;;;5020942;28;20040;-64
2023/06/20 08:53:48;;;;;;;14.80;12.45;;;23.30;97.90;;;;;;5013515;28;20096;-64
2023/06/20 08:56:18;;;;;;;17.27;12.05;;;23.60;97.50;;;;;;5006680;28;20472;-64
2023/06/20 08:58:56;;;;;;;15.25;13.02;;;23.90;97.20;;;;;;5014706;28;20034;-64
2023/06/20 09:01:21;;;;;;;13.52;11.95;;;24.00;96.80;;;;;;4996053;28;20091;-64
2023/06/20 09:03:51;;;;;;;14.10;12.13;;;24.20;96.80;;;;;;5012753;28;20041;-64
2023/06/20 09:06:37;;;;;;;13.77;12.23;;;24.30;96.40;;;;;;4999962;28;20124;-64
2023/06/20 09:09:13;;;;;;;12.15;10.73;;;24.40;96.20;;;;;;5029882;28;20038;-64
2023/06/20 09:11:39;;;;;;;15.35;11.48;;;24.50;96.20;;;;;;5026537;28;20526;-64
2023/06/20 09:14:04;;;;;;;11.82;10.68;;;24.80;96.20;;;;;;5011473;28;20054;-64
2023/06/20 09:16:30;;;;;;;10.98;9.52;;;25.10;96.10;;;;;;5017145;28;20400;-64
2023/06/20 09:19:02;;;;;;;11.80;9.82;;;25.30;95.80;;;;;;4996511;28;20069;-64
2023/06/20 09:21:28;;;;;;;10.93;9.77;;;25.60;95.30;;;;;;5019111;28;20448;-65
2023/06/20 09:24:04;;;;;;;13.23;9.65;;;25.90;95.00;;;;;;5022454;28;20084;-65
2023/06/20 09:26:34;;;;;;;11.07;8.65;;;26.10;94.40;;;;;;5018914;28;20081;-64
2023/06/20 09:29:14;;;;;;;9.68;8.35;;;26.40;94.50;;;;;;4999986;28;20037;-64
2023/06/20 09:31:47;;;;;;;10.52;9.27;;;26.70;93.70;;;;;;5019748;28;20041;-65
2023/06/20 09:34:15;;;;;;;10.48;8.82;;;27.00;93.60;;;;;;5012083;28;20048;-65
2023/06/20 09:36:42;;;;;;;10.73;8.65;;;27.20;93.20;;;;;;5015169;28;20485;-64
2023/06/20 09:39:11;;;;;;;9.32;7.72;;;27.30;92.90;;;;;;5016438;28;20047;-64
2023/06/20 09:41:42;;;;;;;9.35;8.45;;;27.40;92.60;;;;;;5023129;28;20037;-64
2023/06/20 09:44:08;;;;;;;11.05;9.10;;;27.60;92.30;;;;;;4991057;28;20548;-64
2023/06/20 09:46:33;;;;;;;9.10;8.20;;;27.80;92.10;;;;;;5019588;28;20116;-65
2023/06/20 09:48:59;;;;;;;10.02;9.02;;;27.90;91.70;;;;;;5024497;28;20041;-64
2023/06/20 09:51:27;;;;;;;10.32;9.20;;;28.00;91.30;;;;;;5026431;28;20117;-66
2023/06/20 09:54:03;;;;;;;10.65;8.50;;;28.10;90.90;;;;;;5012388;28;20133;-66
2023/06/20 09:56:29;;;;;;;11.48;8.85;;;28.30;90.70;;;;;;4987604;28;20045;-67
2023/06/20 09:58:58;;;;;;;9.75;8.75;;;28.40;90.70;;;;;;5015746;28;20069;-67
2023/06/20 10:01:26;;;;;;;8.02;7.22;;;28.50;90.00;;;;;;5011351;28;20540;-66
2023/06/20 10:03:54;;;;;;;9.73;7.97;;;28.60;90.00;;;;;;5020924;28;20447;-65
2023/06/20 10:06:20;;;;;;;11.48;9.27;;;28.60;89.30;;;;;;5002598;28;20346;-65
2023/06/20 10:08:47;;;;;;;10.50;8.18;;;28.60;88.70;;;;;;5020578;28;20538;-65
2023/06/20 10:11:13;;;;;;;10.38;8.38;;;28.60;88.60;;;;;;5023073;28;20369;-65
2023/06/20 10:13:40;;;;;;;9.27;7.63;;;28.70;87.70;;;;;;5000518;28;20117;-65
2023/06/20 10:16:06;;;;;;;9.02;7.18;;;28.70;87.90;;;;;;5019478;28;20392;-65
2023/06/20 10:18:32;;;;;;;9.18;7.40;;;28.80;87.90;;;;;;5011479;28;20045;-65
2023/06/20 10:21:01;;;;;;;8.00;7.25;;;28.90;87.50;;;;;;5012726;22;21554;-65
2023/06/20 10:23:31;;;;;;;8.15;7.15;;;29.00;87.00;;;;;;5007591;28;20049;-68
2023/06/20 10:25:58;;;;;;;8.95;6.28;;;29.10;86.10;;;;;;5008064;28;20038;-64
2023/06/20 10:28:24;;;;;;;8.23;6.22;;;29.30;86.30;;;;;;5000869;28;20091;-64
2023/06/20 10:30:50;;;;;;;10.15;7.95;;;29.30;85.90;;;;;;5016580;28;20439;-63
2023/06/20 10:33:33;;;;;;;10.23;7.68;;;29.50;85.10;;;;;;4991092;28;20045;-64
2023/06/20 10:36:09;;;;;;;9.65;7.05;;;29.50;84.10;;;;;;5019504;28;20407;-66
2023/06/20 10:39:01;;;;;;;10.45;6.50;;;29.60;83.50;;;;;;5009339;28;20056;-64
2023/06/20 10:41:28;;;;;;;6.25;5.65;;;29.70;82.80;;;;;;4985138;28;20050;-66
2023/06/20 10:43:58;;;;;;;8.25;6.05;;;29.80;83.70;;;;;;5010613;28;20128;-64
2023/06/20 10:46:36;;;;;;;7.47;6.10;;;30.00;82.70;;;;;;4976130;28;20038;-64
2023/06/20 10:49:06;;;;;;;8.07;6.20;;;30.20;81.00;;;;;;5018428;28;20045;-65
2023/06/20 10:51:48;;;;;;;7.78;6.70;;;30.30;81.00;;;;;;5004988;28;20136;-64
2023/06/20 10:54:15;;;;;;;7.65;6.28;;;30.40;79.90;;;;;;4992555;28;20037;-64
2023/06/20 10:56:43;;;;;;;6.53;5.75;;;30.50;80.70;;;;;;5013635;28;20033;-64
2023/06/20 10:59:09;;;;;;;8.07;7.28;;;30.70;80.40;;;;;;5009996;28;20045;-65
2023/06/20 11:01:35;;;;;;;7.03;6.32;;;30.80;78.70;;;;;;4995762;28;20041;-68
2023/06/20 11:04:05;;;;;;;8.55;7.15;;;30.80;78.80;;;;;;5011323;28;20042;-64
2023/06/20 11:06:32;;;;;;;9.03;7.60;;;30.90;78.70;;;;;;5013301;28;20396;-64
2023/06/20 11:08:58;;;;;;;7.40;6.60;;;30.80;77.80;;;;;;5012514;28;20087;-69
2023/06/20 11:11:31;;;;;;;6.95;6.25;;;30.80;77.80;;;;;;4994733;28;20037;-68
2023/06/20 11:14:12;;;;;;;9.15;7.45;;;30.80;77.50;;;;;;5009813;28;20038;-65
2023/06/20 11:16:38;;;;;;;;;;;31.00;76.90;;;;;;5007920;28;20116;-69
2023/06/20 11:19:04;;;;;;;10.20;8.75;;;31.10;76.70;;;;;;5011183;28;19925;-64
2023/06/20 11:21:30;;;;;;;9.40;6.93;;;31.10;76.50;;;;;;5012254;28;20045;-68
2023/06/20 11:24:03;;;;;;;8.85;7.95;;;31.10;75.70;;;;;;4988883;28;20421;-66
2023/06/20 11:26:30;;;;;;;7.88;7.07;;;31.10;75.90;;;;;;5006084;28;20120;-65
2023/06/20 11:28:59;;;;;;;7.78;6.18;;;31.00;74.80;;;;;;5005828;28;20042;-64
2023/06/20 11:31:25;;;;;;;8.27;6.47;;;31.10;75.10;;;;;;5011381;28;20412;-64
2023/06/20 11:34:11;;;;;;;8.85;6.32;;;31.10;75.10;;;;;;5008287;28;20041;-64
2023/06/20 11:36:39;;;;;;;5.95;5.35;;;31.00;72.90;;;;;;4980706;28;20051;-64
2023/06/20 11:39:09;;;;;;;6.50;5.25;;;30.80;73.90;;;;;;5016842;28;20046;-66
2023/06/20 11:41:35;;;;;;;6.60;5.88;;;30.70;73.60;;;;;;4996244;28;20038;-65
2023/06/20 11:44:03;;;;;;;5.78;5.18;;;30.50;73.60;;;;;;4988380;28;20566;-64
2023/06/20 11:46:28;;;;;;;7.18;5.90;;;30.30;73.80;;;;;;5017439;28;20138;-66
2023/06/20 11:48:58;;;;;;;7.05;6.35;;;30.40;74.20;;;;;;5003950;28;20090;-64
2023/06/20 11:51:25;;;;;;;7.87;6.17;;;30.40;74.10;;;;;;5024794;28;20037;-64
2023/06/20 11:54:07;;;;;;;7.68;6.05;;;30.40;74.00;;;;;;4995958;28;20077;-67
2023/06/20 11:56:32;;;;;;;7.82;5.80;;;30.40;74.20;;;;;;4989902;28;20045;-64
2023/06/20 11:58:58;;;;;;;7.47;6.28;;;30.70;74.50;;;;;;5004829;28;20045;-64
2023/06/20 12:01:25;;;;;;;9.48;6.40;;;30.80;74.10;;;;;;4992962;28;20530;-65
2023/06/20 12:04:05;;;;;;;5.97;5.38;;;30.80;73.40;;;;;;4978549;28;20042;-69
2023/06/20 12:06:36;;;;;;;6.07;5.45;;;30.70;73.90;;;;;;4992261;28;20064;-64
2023/06/20 12:09:13;;;;;;;7.57;5.50;;;30.80;74.00;;;;;;4994984;28;20030;-65
2023/06/20 12:11:54;;;;;;;5.95;4.97;;;30.90;73.40;;;;;;4977808;28;20041;-64
2023/06/20 12:14:24;;;;;;;6.75;5.75;;;30.80;73.50;;;;;;4990430;28;20045;-65
2023/06/20 12:16:51;;;;;;;10.97;5.40;;;30.70;72.80;;;;;;4999503;28;20048;-64
2023/06/20 12:19:19;;;;;;;7.78;5.72;;;30.50;72.50;;;;;;4985404;28;20038;-64
2023/06/20 12:21:49;;;;;;;6.90;6.20;;;30.40;72.90;;;;;;4986430;28;20041;-65
2023/06/20 12:24:20;;;;;;;5.90;5.30;;;30.40;73.30;;;;;;4976376;28;20493;-64
2023/06/20 12:26:51;;;;;;;8.80;5.70;;;30.40;73.10;;;;;;4984635;28;20070;-64
2023/06/20 12:29:17;;;;;;;6.07;5.28;;;30.60;73.40;;;;;;4999536;28;20038;-65
2023/06/20 12:31:43;;;;;;;6.53;5.93;;;30.80;73.70;;;;;;4964167;28;20038;-66
2023/06/20 12:34:08;;;;;;;7.82;5.28;;;30.90;72.40;;;;;;5008399;28;20033;-67
2023/06/20 12:36:34;;;;;;;6.75;5.40;;;31.10;71.60;;;;;;5004047;28;20048;-66
2023/06/20 12:39:00;;;;;;;5.82;5.00;;;30.90;71.10;;;;;;4996453;28;20033;-65